Time;durP1;ratioP1;P1;durP2;ratioP2;P2;SDS_P1;SDS_P2;PMS_P1;PMS_P2;Temp;Humidity;BMP_temperature;BMP_pressure;BME280_temperature;BME280_humidity;BME280_pressure;Samples;Min_cycle;Max_cycle;Signal;HPM_P1;HPM_P2
2021/11/06 00:00:06;;;;;;;16.77;5.25;;;7.80;93.70;;;;;;5075229;28;20055;-75
2021/11/06 00:02:31;;;;;;;16.35;5.72;;;7.80;93.70;;;;;;5074945;28;20020;-75
2021/11/06 00:04:57;;;;;;;13.63;5.68;;;7.70;93.70;;;;;;5074732;28;20108;-74
2021/11/06 00:07:22;;;;;;;14.07;5.63;;;7.70;93.70;;;;;;5075132;28;20024;-75
2021/11/06 00:09:48;;;;;;;10.60;5.22;;;7.70;93.70;;;;;;5093388;28;20032;-74
2021/11/06 00:12:14;;;;;;;10.65;5.72;;;7.60;93.60;;;;;;5093255;28;20024;-74
2021/11/06 00:14:40;;;;;;;15.05;5.97;;;7.70;93.70;;;;;;5075870;28;20086;-75
2021/11/06 00:17:05;;;;;;;12.52;6.18;;;7.60;93.70;;;;;;5094399;28;20031;-74
2021/11/06 00:19:31;;;;;;;14.70;6.18;;;7.60;93.70;;;;;;5094808;28;20511;-75
2021/11/06 00:21:57;;;;;;;9.20;5.78;;;7.60;93.70;;;;;;5074956;28;20062;-75
2021/11/06 00:24:23;;;;;;;11.63;6.03;;;7.60;93.70;;;;;;5074613;28;20016;-74
2021/11/06 00:26:49;;;;;;;14.25;6.18;;;7.60;93.70;;;;;;5092763;28;20566;-75
2021/11/06 00:29:17;;;;;;;11.15;5.35;;;7.50;93.80;;;;;;5092564;28;20173;-74
2021/11/06 00:31:42;;;;;;;16.35;6.28;;;7.50;93.80;;;;;;5093010;28;20052;-76
2021/11/06 00:34:08;;;;;;;12.43;5.85;;;7.50;93.80;;;;;;5074675;28;20055;-76
2021/11/06 00:36:34;;;;;;;14.05;6.32;;;7.50;93.90;;;;;;5092442;28;20528;-74
2021/11/06 00:39:00;;;;;;;9.18;5.78;;;7.40;93.90;;;;;;5093111;28;20483;-75
2021/11/06 00:41:25;;;;;;;13.50;6.68;;;7.40;93.90;;;;;;5074391;28;20024;-74
2021/11/06 00:43:51;;;;;;;11.32;5.97;;;7.40;94.00;;;;;;5074609;28;20495;-75
2021/11/06 00:46:17;;;;;;;14.57;6.60;;;7.40;94.00;;;;;;5092451;28;20028;-74
2021/11/06 00:48:42;;;;;;;14.93;8.10;;;7.40;94.00;;;;;;5092631;28;20473;-75
2021/11/06 00:51:09;;;;;;;14.23;7.30;;;7.40;94.00;;;;;;5092694;28;20032;-75
2021/11/06 00:53:34;;;;;;;21.33;8.32;;;7.40;94.00;;;;;;5092401;28;20020;-75
2021/11/06 00:56:00;;;;;;;14.45;7.75;;;7.40;94.00;;;;;;5092253;28;20035;-75
2021/11/06 00:58:26;;;;;;;12.70;6.60;;;7.40;93.90;;;;;;5092384;28;20028;-75
2021/11/06 01:00:51;;;;;;;14.85;7.35;;;7.40;94.00;;;;;;5092648;28;20028;-74
2021/11/06 01:03:17;;;;;;;16.88;7.68;;;7.30;93.90;;;;;;5074055;28;20487;-76
2021/11/06 01:05:42;;;;;;;15.30;7.43;;;7.40;93.90;;;;;;5092964;28;20028;-75
2021/11/06 01:08:08;;;;;;;14.57;8.00;;;7.40;93.90;;;;;;5092798;28;20017;-74
2021/11/06 01:10:34;;;;;;;17.20;8.27;;;7.30;93.80;;;;;;5092889;28;20020;-73
2021/11/06 01:13:00;;;;;;;15.90;9.07;;;7.30;93.80;;;;;;5094153;28;20388;-74
2021/11/06 01:15:25;;;;;;;16.70;9.38;;;7.30;93.80;;;;;;5076680;28;20453;-73
2021/11/06 01:17:51;;;;;;;14.25;8.73;;;7.30;93.90;;;;;;5100812;28;20078;-74
2021/11/06 01:20:16;;;;;;;17.08;9.32;;;7.30;93.90;;;;;;5100080;28;20526;-75
2021/11/06 01:22:43;;;;;;;13.80;8.45;;;7.30;93.90;;;;;;5079561;28;20038;-75
2021/11/06 01:25:09;;;;;;;15.45;8.82;;;7.30;93.90;;;;;;5097366;28;20031;-75
2021/11/06 01:27:36;;;;;;;14.57;9.65;;;7.30;93.90;;;;;;5079145;28;20115;-75
2021/11/06 01:30:02;;;;;;;15.18;9.40;;;7.30;93.80;;;;;;5097633;28;20179;-74
2021/11/06 01:32:28;;;;;;;18.90;10.75;;;7.30;93.80;;;;;;5097880;28;20404;-74
2021/11/06 01:34:53;;;;;;;18.98;9.82;;;7.30;93.80;;;;;;5096411;28;20024;-74
2021/11/06 01:37:19;;;;;;;17.95;11.30;;;7.30;93.80;;;;;;5096209;28;20035;-75
2021/11/06 01:39:45;;;;;;;14.60;8.82;;;7.30;93.80;;;;;;5096572;28;20027;-75
2021/11/06 01:42:10;;;;;;;17.83;10.75;;;7.30;93.80;;;;;;5078121;28;20036;-74
2021/11/06 01:44:36;;;;;;;16.42;10.38;;;7.30;93.80;;;;;;5095993;28;20020;-75
2021/11/06 01:47:02;;;;;;;17.48;10.40;;;7.30;93.80;;;;;;5078321;28;20040;-75
2021/11/06 01:49:28;;;;;;;19.25;11.15;;;7.30;93.80;;;;;;5077521;28;20024;-75
2021/11/06 01:51:54;;;;;;;19.83;11.85;;;7.30;94.00;;;;;;5095863;28;20051;-74
2021/11/06 01:54:23;;;;;;;16.95;9.63;;;7.30;93.70;;;;;;5077536;28;20024;-74
2021/11/06 01:56:50;;;;;;;20.58;10.85;;;7.30;93.70;;;;;;5077736;28;20017;-74
2021/11/06 01:59:15;;;;;;;21.85;10.95;;;7.40;93.70;;;;;;5095876;28;20052;-75
2021/11/06 02:01:41;;;;;;;17.20;11.40;;;7.30;93.60;;;;;;5077573;28;20447;-75
2021/11/06 02:04:07;;;;;;;21.60;11.95;;;7.30;93.60;;;;;;5096043;28;20020;-75
2021/11/06 02:06:32;;;;;;;17.23;11.57;;;7.30;93.50;;;;;;5095399;28;20090;-74
2021/11/06 02:08:58;;;;;;;16.63;10.68;;;7.30;93.50;;;;;;5095674;28;20553;-75
2021/11/06 02:11:24;;;;;;;22.75;12.77;;;7.30;93.50;;;;;;5077703;28;20059;-75
2021/11/06 02:13:51;;;;;;;24.80;12.70;;;7.40;93.50;;;;;;5096442;28;20024;-77
2021/11/06 02:16:17;;;;;;;16.52;10.80;;;7.40;93.50;;;;;;5117450;28;20035;-76
2021/11/06 02:18:45;;;;;;;20.95;10.40;;;7.40;93.40;;;;;;5097697;28;20012;-75
2021/11/06 02:21:11;;;;;;;30.35;14.68;;;7.40;93.30;;;;;;5095187;28;20024;-75
2021/11/06 02:23:39;;;;;;;18.02;11.10;;;7.40;93.30;;;;;;5095036;28;20027;-74
2021/11/06 02:26:09;;;;;;;24.85;12.15;;;7.40;93.30;;;;;;5095383;28;20020;-75
2021/11/06 02:28:35;;;;;;;23.73;11.68;;;7.40;93.30;;;;;;5076120;28;20039;-76
2021/11/06 02:31:01;;;;;;;20.38;11.68;;;7.40;93.40;;;;;;5094878;28;20051;-76
2021/11/06 02:33:27;;;;;;;21.92;12.50;;;7.40;93.40;;;;;;5077443;28;20456;-76
2021/11/06 02:35:53;;;;;;;27.05;13.38;;;7.40;93.40;;;;;;5078110;28;20085;-75
2021/11/06 02:38:18;;;;;;;26.10;13.25;;;7.50;93.40;;;;;;5077410;28;20056;-75
2021/11/06 02:40:44;;;;;;;33.83;14.60;;;7.50;93.40;;;;;;5095543;28;20400;-75
2021/11/06 02:43:10;;;;;;;26.02;13.77;;;7.50;93.30;;;;;;5076823;28;20028;-74
2021/11/06 02:45:36;;;;;;;24.38;11.95;;;7.50;93.30;;;;;;5094817;28;20024;-75
2021/11/06 02:48:04;;;;;;;26.10;13.27;;;7.50;93.30;;;;;;5094986;28;20043;-75
2021/11/06 02:50:30;;;;;;;18.30;11.63;;;7.50;93.30;;;;;;5094755;28;20032;-76
2021/11/06 02:52:56;;;;;;;29.30;12.95;;;7.50;93.30;;;;;;5076602;28;20016;-75
2021/11/06 02:55:22;;;;;;;31.02;12.82;;;7.50;93.30;;;;;;5076512;28;20107;-73
2021/11/06 02:57:48;;;;;;;31.55;12.88;;;7.60;93.30;;;;;;5094623;28;20137;-74
2021/11/06 03:00:14;;;;;;;27.75;12.70;;;7.60;93.30;;;;;;5076764;28;20038;-75
2021/11/06 03:02:40;;;;;;;30.70;14.18;;;7.60;93.30;;;;;;5076748;28;20023;-74
2021/11/06 03:05:08;;;;;;;25.80;12.55;;;7.60;93.20;;;;;;5094747;28;20028;-74
2021/11/06 03:07:33;;;;;;;27.08;12.77;;;7.60;93.20;;;;;;5076437;28;20457;-75
2021/11/06 03:09:59;;;;;;;30.80;13.77;;;7.60;93.20;;;;;;5077297;28;20123;-74
2021/11/06 03:12:25;;;;;;;35.95;13.75;;;7.60;93.20;;;;;;5079023;28;20070;-73
2021/11/06 03:14:51;;;;;;;36.35;14.85;;;7.60;93.20;;;;;;5081961;28;20423;-74
2021/11/06 03:17:18;;;;;;;30.85;15.13;;;7.60;93.10;;;;;;5094647;28;20038;-74
2021/11/06 03:19:44;;;;;;;31.63;14.38;;;7.60;93.10;;;;;;5075884;28;20053;-75
2021/11/06 03:22:10;;;;;;;31.00;15.30;;;7.60;93.20;;;;;;5076353;28;20052;-75
2021/11/06 03:24:36;;;;;;;38.70;16.08;;;7.70;93.10;;;;;;5094303;28;20022;-74
2021/11/06 03:27:03;;;;;;;34.97;16.33;;;7.60;93.10;;;;;;5094096;28;20082;-74
2021/11/06 03:29:29;;;;;;;37.05;15.40;;;7.60;93.10;;;;;;5075706;28;20028;-74
2021/11/06 03:31:54;;;;;;;35.90;15.88;;;7.70;93.20;;;;;;5093595;28;20067;-74
2021/11/06 03:34:20;;;;;;;30.67;16.63;;;7.60;93.00;;;;;;5094033;28;20020;-74
2021/11/06 03:36:47;;;;;;;44.03;17.08;;;7.60;93.00;;;;;;5075531;28;20032;-74
2021/11/06 03:39:13;;;;;;;33.15;16.48;;;7.70;93.00;;;;;;5092978;28;20013;-75
2021/11/06 03:41:39;;;;;;;38.15;16.52;;;7.70;93.00;;;;;;5075373;28;20077;-74
2021/11/06 03:44:05;;;;;;;38.55;17.38;;;7.70;92.80;;;;;;5093944;28;20027;-74
2021/11/06 03:46:31;;;;;;;36.05;14.73;;;7.70;92.80;;;;;;5093858;28;20039;-76
2021/11/06 03:48:58;;;;;;;36.90;15.73;;;7.70;92.80;;;;;;5093766;28;20036;-74
2021/11/06 03:51:23;;;;;;;30.20;15.73;;;7.70;92.80;;;;;;5075408;28;20372;-74
2021/11/06 03:53:49;;;;;;;36.40;18.13;;;7.70;92.70;;;;;;5093617;28;20456;-75
2021/11/06 03:56:15;;;;;;;32.22;16.25;;;7.70;92.70;;;;;;5093752;28;20020;-76
2021/11/06 03:58:40;;;;;;;36.40;17.05;;;7.60;92.60;;;;;;5075216;28;20016;-75
2021/11/06 04:01:06;;;;;;;34.97;16.23;;;7.60;92.60;;;;;;5075361;28;20046;-75
2021/11/06 04:03:32;;;;;;;33.63;16.50;;;7.70;92.60;;;;;;5093796;28;20026;-75
2021/11/06 04:05:57;;;;;;;34.78;16.27;;;7.60;92.40;;;;;;5075529;28;20030;-75
2021/11/06 04:08:23;;;;;;;28.00;14.70;;;7.60;92.40;;;;;;5093477;28;20016;-74
2021/11/06 04:10:49;;;;;;;26.42;13.57;;;7.60;92.50;;;;;;5093260;28;20475;-74
2021/11/06 04:13:14;;;;;;;31.42;14.65;;;7.60;92.80;;;;;;5094249;28;20027;-75
2021/11/06 04:15:41;;;;;;;28.75;15.32;;;7.60;92.60;;;;;;5087944;28;20047;-74
2021/11/06 04:18:07;;;;;;;31.30;14.88;;;7.60;92.70;;;;;;5096783;28;20024;-74
2021/11/06 04:20:33;;;;;;;30.55;14.20;;;7.60;92.60;;;;;;5093079;28;20062;-75
2021/11/06 04:22:59;;;;;;;26.08;13.07;;;7.60;92.70;;;;;;5074697;28;20016;-74
2021/11/06 04:25:25;;;;;;;30.23;14.93;;;7.60;92.70;;;;;;5074878;28;20364;-74
2021/11/06 04:27:51;;;;;;;26.08;13.85;;;7.70;92.60;;;;;;5092754;28;20102;-75
2021/11/06 04:30:16;;;;;;;27.67;13.40;;;7.60;92.50;;;;;;5074472;28;20476;-74
2021/11/06 04:32:42;;;;;;;31.92;16.17;;;7.70;92.60;;;;;;5092528;28;20072;-75
2021/11/06 04:35:09;;;;;;;30.92;14.75;;;7.60;92.40;;;;;;5092710;28;20024;-75
2021/11/06 04:37:36;;;;;;;26.17;13.18;;;7.60;92.50;;;;;;5092778;28;20028;-75
2021/11/06 04:40:02;;;;;;;34.30;14.68;;;7.60;92.50;;;;;;5092927;28;20047;-75
2021/11/06 04:42:28;;;;;;;26.35;13.63;;;7.60;92.60;;;;;;5092528;28;20024;-74
2021/11/06 04:44:53;;;;;;;29.33;14.73;;;7.60;92.60;;;;;;5074684;28;20027;-75
2021/11/06 04:47:19;;;;;;;28.30;15.90;;;7.60;92.50;;;;;;5092801;28;20380;-74
2021/11/06 04:49:45;;;;;;;29.63;15.13;;;7.60;92.30;;;;;;5092336;28;20031;-74
2021/11/06 04:52:10;;;;;;;28.50;14.55;;;7.60;92.50;;;;;;5092952;28;20115;-74
2021/11/06 04:54:36;;;;;;;36.85;15.60;;;7.60;92.60;;;;;;5074559;28;20023;-75
2021/11/06 04:57:02;;;;;;;33.00;15.00;;;7.60;92.50;;;;;;5093203;28;20039;-74
2021/11/06 04:59:27;;;;;;;35.00;16.35;;;7.60;92.50;;;;;;5092814;28;20484;-75
2021/11/06 05:01:53;;;;;;;34.90;14.73;;;7.60;92.50;;;;;;5075290;28;20022;-74
2021/11/06 05:04:18;;;;;;;31.65;16.38;;;7.50;92.50;;;;;;5095071;28;20024;-73
2021/11/06 05:06:44;;;;;;;30.45;15.93;;;7.50;92.50;;;;;;5097026;28;20028;-72
2021/11/06 05:09:10;;;;;;;28.23;15.43;;;7.50;92.50;;;;;;5075620;28;20024;-74
2021/11/06 05:11:35;;;;;;;29.98;16.10;;;7.50;92.60;;;;;;5091980;28;20022;-74
2021/11/06 05:14:01;;;;;;;32.38;15.13;;;7.50;92.60;;;;;;5074483;28;20427;-74
2021/11/06 05:16:27;;;;;;;31.83;16.45;;;7.50;92.80;;;;;;5074430;28;20032;-74
2021/11/06 05:18:54;;;;;;;31.58;16.80;;;7.50;92.80;;;;;;5092808;28;20107;-74
2021/11/06 05:21:21;;;;;;;31.67;16.52;;;7.50;92.80;;;;;;5092203;28;20385;-74
2021/11/06 05:23:48;;;;;;;30.70;16.38;;;7.50;92.80;;;;;;5073785;28;20454;-73
2021/11/06 05:26:14;;;;;;;29.38;16.58;;;7.50;92.80;;;;;;5092120;28;20023;-75
2021/11/06 05:28:41;;;;;;;34.53;16.33;;;7.60;92.90;;;;;;5092005;28;20141;-74
2021/11/06 05:31:07;;;;;;;35.40;16.70;;;7.50;92.90;;;;;;5091866;28;20052;-74
2021/11/06 05:33:33;;;;;;;28.67;17.23;;;7.60;93.00;;;;;;5092431;28;20024;-73
2021/11/06 05:35:58;;;;;;;31.27;15.73;;;7.50;93.10;;;;;;5092058;28;20493;-73
2021/11/06 05:38:24;;;;;;;32.85;16.90;;;7.60;93.30;;;;;;5092032;28;20042;-74
2021/11/06 05:40:50;;;;;;;30.42;16.30;;;7.60;93.40;;;;;;5091748;28;20035;-73
2021/11/06 05:43:15;;;;;;;37.08;20.30;;;7.60;93.40;;;;;;5092060;28;20024;-73
2021/11/06 05:45:41;;;;;;;28.55;15.38;;;7.50;93.60;;;;;;5073513;28;20028;-73
2021/11/06 05:48:07;;;;;;;41.88;18.58;;;7.50;93.80;;;;;;5091959;28;20468;-73
2021/11/06 05:50:32;;;;;;;36.30;20.60;;;7.50;93.80;;;;;;5073357;28;20024;-74
2021/11/06 05:52:58;;;;;;;36.75;20.30;;;7.50;93.90;;;;;;5091912;28;20361;-74
2021/11/06 05:55:24;;;;;;;37.65;21.70;;;7.50;94.00;;;;;;5091760;28;20483;-74
2021/11/06 05:57:49;;;;;;;36.35;20.27;;;7.50;94.10;;;;;;5091553;28;20024;-74
2021/11/06 06:00:18;;;;;;;38.38;20.70;;;7.50;94.10;;;;;;5073853;28;20049;-74
2021/11/06 06:02:48;;;;;;;27.95;18.65;;;7.50;94.20;;;;;;5093595;28;20016;-73
2021/11/06 06:05:14;;;;;;;35.00;19.70;;;7.60;94.20;;;;;;5095934;28;20028;-74
2021/11/06 06:07:40;;;;;;;35.30;19.75;;;7.50;94.30;;;;;;5095413;28;20020;-74
2021/11/06 06:10:09;;;;;;;34.00;19.67;;;7.60;94.30;;;;;;5095861;28;20472;-73
2021/11/06 06:12:35;;;;;;;37.97;20.05;;;7.60;94.30;;;;;;5096080;28;20027;-74
2021/11/06 06:15:01;;;;;;;34.50;18.73;;;7.60;94.40;;;;;;5088611;28;20012;-73
2021/11/06 06:17:26;;;;;;;46.50;20.85;;;7.60;94.20;;;;;;5108397;28;20099;-74
2021/11/06 06:19:52;;;;;;;32.60;19.77;;;7.70;94.20;;;;;;5095211;28;20081;-74
2021/11/06 06:22:17;;;;;;;32.70;17.98;;;7.70;94.20;;;;;;5095279;28;20457;-74
2021/11/06 06:24:43;;;;;;;28.65;18.33;;;7.70;94.20;;;;;;5094911;28;20032;-74
2021/11/06 06:27:09;;;;;;;36.83;19.77;;;7.70;94.10;;;;;;5077074;28;20016;-75
2021/11/06 06:29:35;;;;;;;36.88;20.40;;;7.70;94.10;;;;;;5076836;28;20485;-74
2021/11/06 06:32:00;;;;;;;33.78;20.00;;;7.70;94.10;;;;;;5073369;28;20052;-75
2021/11/06 06:34:26;;;;;;;44.30;20.65;;;7.70;94.10;;;;;;5073683;28;20024;-75
2021/11/06 06:36:52;;;;;;;30.92;20.27;;;7.70;94.00;;;;;;5074365;28;20017;-74
2021/11/06 06:39:17;;;;;;;33.65;20.05;;;7.70;94.00;;;;;;5074751;28;20477;-74
2021/11/06 06:41:44;;;;;;;33.03;19.77;;;7.80;94.00;;;;;;5074654;28;20024;-74
2021/11/06 06:44:10;;;;;;;29.05;17.40;;;7.70;93.90;;;;;;5074978;28;20029;-75
2021/11/06 06:46:36;;;;;;;39.10;20.67;;;7.70;94.00;;;;;;5074844;28;20031;-73
2021/11/06 06:49:02;;;;;;;31.50;20.73;;;7.70;94.00;;;;;;5056708;28;20479;-74
2021/11/06 06:51:28;;;;;;;32.97;21.33;;;7.70;93.90;;;;;;5075027;28;20020;-74
2021/11/06 06:53:53;;;;;;;30.70;21.13;;;7.70;93.90;;;;;;5076738;28;20088;-74
2021/11/06 06:56:19;;;;;;;37.95;21.45;;;7.70;93.90;;;;;;5079354;28;20025;-73
2021/11/06 06:58:44;;;;;;;35.35;20.45;;;7.80;93.90;;;;;;5078602;28;20028;-74
2021/11/06 07:01:10;;;;;;;37.30;21.10;;;7.70;93.90;;;;;;5056601;28;20389;-73
2021/11/06 07:03:36;;;;;;;34.83;21.60;;;7.70;93.80;;;;;;5056242;28;20064;-74
2021/11/06 07:06:02;;;;;;;32.30;19.92;;;7.70;93.80;;;;;;5056407;28;20119;-76
2021/11/06 07:08:28;;;;;;;31.75;19.42;;;7.80;93.90;;;;;;5074098;28;20029;-75
2021/11/06 07:10:53;;;;;;;31.02;18.92;;;7.80;93.90;;;;;;5073839;28;20051;-75
2021/11/06 07:13:21;;;;;;;30.05;19.70;;;7.80;93.90;;;;;;5073865;28;20139;-74
2021/11/06 07:15:50;;;;;;;33.55;20.65;;;7.80;93.80;;;;;;5056049;28;20051;-75
2021/11/06 07:18:16;;;;;;;34.35;23.13;;;7.80;93.80;;;;;;5074487;28;20409;-74
2021/11/06 07:20:41;;;;;;;32.47;18.25;;;7.80;93.80;;;;;;5056350;28;20051;-74
2021/11/06 07:23:07;;;;;;;32.30;17.77;;;7.80;93.90;;;;;;5073824;28;20043;-74
2021/11/06 07:25:33;;;;;;;28.92;18.67;;;7.90;93.90;;;;;;5074483;28;20062;-74
2021/11/06 07:28:00;;;;;;;31.55;18.75;;;7.80;93.90;;;;;;5073583;28;20021;-75
2021/11/06 07:30:25;;;;;;;29.77;19.35;;;7.90;93.90;;;;;;5073829;28;20120;-75
2021/11/06 07:32:51;;;;;;;33.05;20.10;;;7.90;93.90;;;;;;5055551;28;20607;-74
2021/11/06 07:35:17;;;;;;;35.03;19.77;;;7.90;93.90;;;;;;5073561;28;20428;-74
2021/11/06 07:37:43;;;;;;;30.67;18.80;;;7.90;94.00;;;;;;5073156;28;20027;-74
2021/11/06 07:40:11;;;;;;;31.58;20.95;;;7.90;94.00;;;;;;5055817;28;20024;-74
2021/11/06 07:42:39;;;;;;;27.88;17.92;;;7.90;94.10;;;;;;5073672;28;20143;-75
2021/11/06 07:45:06;;;;;;;30.63;19.67;;;7.90;94.10;;;;;;5074101;28;20044;-74
2021/11/06 07:47:32;;;;;;;32.22;19.90;;;8.00;94.20;;;;;;5055762;28;20110;-74
2021/11/06 07:49:58;;;;;;;33.03;20.40;;;8.00;94.30;;;;;;5055363;28;20064;-73
2021/11/06 07:52:23;;;;;;;36.85;21.60;;;8.00;94.20;;;;;;5073236;28;20028;-72
2021/11/06 07:54:49;;;;;;;35.15;19.65;;;8.00;94.20;;;;;;5073425;28;20098;-74
2021/11/06 07:57:16;;;;;;;28.40;18.85;;;8.10;94.20;;;;;;5073728;28;20027;-75
2021/11/06 07:59:41;;;;;;;28.35;17.65;;;8.10;94.20;;;;;;5073500;28;20020;-74
2021/11/06 08:02:07;;;;;;;30.20;20.63;;;8.10;94.20;;;;;;5055499;28;20086;-74
2021/11/06 08:04:33;;;;;;;34.75;20.75;;;8.10;94.20;;;;;;5055271;28;20035;-74
2021/11/06 08:06:59;;;;;;;30.85;19.90;;;8.10;94.20;;;;;;5055138;28;20380;-74
2021/11/06 08:09:24;;;;;;;30.25;18.48;;;8.10;94.40;;;;;;5055288;28;20024;-74
2021/11/06 08:11:51;;;;;;;30.75;19.50;;;8.20;94.10;;;;;;5056412;28;20041;-74
2021/11/06 08:14:17;;;;;;;26.45;16.83;;;8.20;94.00;;;;;;5090331;28;20016;-74
2021/11/06 08:16:45;;;;;;;30.20;18.60;;;8.30;94.00;;;;;;5074779;28;20031;-74
2021/11/06 08:19:12;;;;;;;31.67;19.20;;;8.30;94.00;;;;;;5076085;28;20027;-74
2021/11/06 08:21:37;;;;;;;25.35;16.50;;;8.30;93.90;;;;;;5055656;28;20032;-75
2021/11/06 08:24:03;;;;;;;22.75;15.48;;;8.40;93.90;;;;;;5056685;28;20043;-73
2021/11/06 08:26:29;;;;;;;33.58;19.25;;;8.40;93.80;;;;;;5075048;28;20032;-73
2021/11/06 08:28:55;;;;;;;25.98;17.35;;;8.50;93.70;;;;;;5074453;28;20051;-73
2021/11/06 08:31:22;;;;;;;24.10;16.40;;;8.50;93.50;;;;;;5072927;28;20070;-73
2021/11/06 08:33:48;;;;;;;27.90;16.80;;;8.60;93.40;;;;;;5055626;28;20430;-74
2021/11/06 08:36:14;;;;;;;24.67;16.98;;;8.60;93.50;;;;;;5054724;28;20070;-75
2021/11/06 08:38:40;;;;;;;24.90;15.23;;;8.60;93.10;;;;;;5054405;28;20131;-74
2021/11/06 08:41:06;;;;;;;24.45;15.38;;;8.60;93.10;;;;;;5072580;28;20032;-74
2021/11/06 08:43:31;;;;;;;25.15;15.98;;;8.60;93.00;;;;;;5075685;28;20032;-73
2021/11/06 08:45:57;;;;;;;23.33;15.80;;;8.60;93.10;;;;;;5073449;28;20037;-74
2021/11/06 08:48:23;;;;;;;24.75;16.83;;;8.70;93.20;;;;;;5066474;28;20029;-76
2021/11/06 08:50:49;;;;;;;24.90;16.10;;;8.70;93.10;;;;;;5066920;28;20051;-74
2021/11/06 08:53:14;;;;;;;27.08;16.77;;;8.80;93.10;;;;;;5051377;28;20071;-74
2021/11/06 08:55:40;;;;;;;26.02;15.82;;;8.80;92.90;;;;;;5050950;28;20121;-74
2021/11/06 08:58:06;;;;;;;25.38;17.63;;;8.80;92.80;;;;;;5033983;28;20434;-75
2021/11/06 09:00:38;;;;;;;21.77;14.45;;;8.80;92.80;;;;;;5034102;28;20525;-75
2021/11/06 09:03:14;;;;;;;22.38;14.52;;;8.90;92.90;;;;;;5034440;28;20381;-75
2021/11/06 09:05:41;;;;;;;23.20;14.57;;;8.90;92.70;;;;;;5034230;28;20108;-75
2021/11/06 09:08:08;;;;;;;25.05;14.63;;;9.00;92.60;;;;;;5051852;28;20363;-74
2021/11/06 09:10:35;;;;;;;21.65;13.48;;;9.00;92.30;;;;;;5034259;28;20044;-74
2021/11/06 09:13:01;;;;;;;21.33;13.00;;;9.00;92.40;;;;;;5052531;28;20052;-74
2021/11/06 09:15:26;;;;;;;20.08;13.07;;;9.00;92.50;;;;;;5034941;28;20025;-75
2021/11/06 09:17:53;;;;;;;19.77;11.70;;;9.00;92.30;;;;;;5034569;28;20060;-75
2021/11/06 09:20:20;;;;;;;22.35;12.32;;;9.10;92.40;;;;;;5052451;28;20091;-77
2021/11/06 09:22:46;;;;;;;19.83;12.65;;;9.10;92.20;;;;;;5033977;28;20021;-74
2021/11/06 09:25:13;;;;;;;19.83;13.05;;;9.10;92.20;;;;;;5050645;28;20021;-74
2021/11/06 09:27:38;;;;;;;22.35;12.38;;;9.10;91.90;;;;;;5050607;28;20108;-75
2021/11/06 09:30:06;;;;;;;18.15;11.40;;;9.10;91.90;;;;;;5051847;28;20112;-75
2021/11/06 09:32:36;;;;;;;22.33;13.43;;;9.10;91.90;;;;;;5050572;28;20371;-76
2021/11/06 09:35:02;;;;;;;22.73;13.20;;;9.10;91.80;;;;;;5051872;28;20043;-75
2021/11/06 09:37:28;;;;;;;20.33;12.15;;;9.10;91.90;;;;;;5052160;28;20439;-74
2021/11/06 09:40:00;;;;;;;20.63;10.68;;;9.10;91.80;;;;;;5054878;28;20120;-78
2021/11/06 09:42:26;;;;;;;19.38;11.50;;;9.10;92.00;;;;;;5056090;28;20028;-75
2021/11/06 09:44:52;;;;;;;17.25;11.43;;;9.20;92.00;;;;;;5068920;28;20021;-76
2021/11/06 09:47:19;;;;;;;20.40;11.80;;;9.20;91.80;;;;;;5076262;28;20534;-74
2021/11/06 09:49:46;;;;;;;20.48;11.10;;;9.40;91.80;;;;;;5075594;28;20054;-76
2021/11/06 09:52:13;;;;;;;16.67;10.45;;;9.40;91.70;;;;;;5075685;28;20465;-76
2021/11/06 09:54:40;;;;;;;20.25;11.40;;;9.50;91.70;;;;;;5074289;28;20032;-74
2021/11/06 09:57:06;;;;;;;17.40;10.38;;;9.60;91.50;;;;;;5075715;28;20024;-75
2021/11/06 09:59:32;;;;;;;19.45;10.52;;;9.70;91.30;;;;;;5058878;28;20115;-74
2021/11/06 10:02:02;;;;;;;16.00;10.45;;;9.70;91.10;;;;;;5054041;28;20473;-75
2021/11/06 10:04:30;;;;;;;16.33;10.63;;;9.70;91.00;;;;;;5067807;28;20032;-74
2021/11/06 10:07:13;;;;;;;17.55;10.27;;;9.90;91.00;;;;;;5060161;28;20021;-74
2021/11/06 10:09:39;;;;;;;16.75;9.88;;;9.90;90.80;;;;;;5054273;28;20392;-74
2021/11/06 10:12:05;;;;;;;14.98;10.27;;;10.00;90.60;;;;;;5037695;28;20144;-74
2021/11/06 10:14:33;;;;;;;15.48;8.68;;;10.10;90.60;;;;;;5063393;28;20021;-75
2021/11/06 10:18:40;;;;;;;15.27;10.07;;;10.10;90.20;;;;;;5045105;27;1932953;-74
2021/11/06 10:21:09;;;;;;;15.43;10.15;;;10.10;90.20;;;;;;5090212;28;20039;-73
2021/11/06 10:23:43;;;;;;;16.38;9.75;;;10.10;90.20;;;;;;5089785;28;20027;-73
2021/11/06 10:26:18;;;;;;;13.57;8.30;;;10.20;90.00;;;;;;5089795;28;20023;-74
2021/11/06 10:28:52;;;;;;;12.02;6.53;;;10.20;90.20;;;;;;5089793;28;20025;-74
2021/11/06 10:31:18;;;;;;;13.27;8.90;;;10.20;90.60;;;;;;5071530;28;20025;-74
2021/11/06 10:33:49;;;;;;;13.82;9.25;;;10.20;89.90;;;;;;5075782;28;20028;-73
2021/11/06 10:36:17;;;;;;;17.10;8.75;;;10.20;89.80;;;;;;5081525;28;20012;-73
2021/11/06 10:39:02;;;;;;;16.15;9.75;;;10.20;90.20;;;;;;5051948;28;20021;-73
2021/11/06 10:41:33;;;;;;;16.48;9.27;;;10.20;90.00;;;;;;5069529;28;20469;-75
2021/11/06 10:43:59;;;;;;;17.13;8.32;;;10.20;89.70;;;;;;5068865;28;20021;-73
2021/11/06 10:46:28;;;;;;;14.25;8.75;;;10.20;89.50;;;;;;5068906;28;20092;-75
2021/11/06 10:48:55;;;;;;;14.70;8.70;;;10.30;90.00;;;;;;5050954;28;20023;-75
2021/11/06 10:51:21;;;;;;;12.57;8.85;;;10.30;89.10;;;;;;5051143;28;20028;-75
2021/11/06 10:53:58;;;;;;;12.35;8.00;;;10.40;90.00;;;;;;5068843;28;20025;-75
2021/11/06 10:56:33;;;;;;;12.38;8.48;;;10.50;89.80;;;;;;5068393;28;20167;-75
2021/11/06 10:59:06;;;;;;;14.32;7.18;;;10.50;89.30;;;;;;5068805;28;20029;-75
2021/11/06 11:01:34;;;;;;;7.22;3.80;;;10.60;89.90;;;;;;5050728;28;20119;-75
2021/11/06 11:04:12;;;;;;;9.63;4.20;;;10.70;91.10;;;;;;5068750;28;20033;-75
2021/11/06 11:06:49;;;;;;;13.35;6.07;;;10.80;91.20;;;;;;5050850;28;20389;-75
2021/11/06 11:09:18;;;;;;;9.52;6.72;;;10.80;91.10;;;;;;5051005;28;20461;-75
2021/11/06 11:11:45;;;;;;;10.82;6.85;;;10.90;90.20;;;;;;5068644;28;20527;-75
2021/11/06 11:14:20;;;;;;;13.40;7.70;;;10.90;87.50;;;;;;5050607;28;20028;-75
2021/11/06 11:16:58;;;;;;;14.70;8.45;;;11.00;86.80;;;;;;5068497;28;20554;-75
2021/11/06 11:19:41;;;;;;;11.40;7.28;;;11.00;86.80;;;;;;5050784;28;20028;-75
2021/11/06 11:22:19;;;;;;;14.90;8.25;;;11.00;86.80;;;;;;5068298;28;20024;-75
2021/11/06 11:24:48;;;;;;;10.32;6.25;;;11.00;86.90;;;;;;5050562;28;20013;-74
2021/11/06 11:27:13;;;;;;;11.82;7.07;;;10.90;87.20;;;;;;5050149;28;20035;-75
2021/11/06 11:29:41;;;;;;;12.70;6.78;;;11.00;87.20;;;;;;5056508;28;20416;-74
2021/11/06 11:32:07;;;;;;;11.57;7.20;;;10.90;86.40;;;;;;5036708;28;20028;-76
2021/11/06 11:34:33;;;;;;;10.43;5.55;;;11.00;87.10;;;;;;5036902;28;20079;-76
2021/11/06 11:36:59;;;;;;;11.20;6.88;;;11.00;87.00;;;;;;5036753;28;20080;-76
2021/11/06 11:39:27;;;;;;;11.65;6.72;;;11.00;86.50;;;;;;5055211;28;20462;-76
2021/11/06 11:42:04;;;;;;;11.85;7.13;;;11.00;86.50;;;;;;5036711;28;20024;-75
2021/11/06 11:45:16;;;;;;;10.80;6.20;;;11.00;86.80;;;;;;5054866;28;20048;-76
2021/11/06 11:47:50;;;;;;;8.52;5.88;;;11.10;87.40;;;;;;4983066;28;20041;-75
2021/11/06 11:50:21;;;;;;;12.20;6.47;;;11.10;88.20;;;;;;5036638;28;20035;-75
2021/11/06 11:52:51;;;;;;;9.73;6.43;;;11.20;87.10;;;;;;5036482;28;20504;-76
2021/11/06 11:55:20;;;;;;;16.00;6.68;;;11.20;87.90;;;;;;5054400;28;20025;-75
2021/11/06 11:58:02;;;;;;;9.18;6.25;;;11.20;86.60;;;;;;5036418;28;20025;-76
2021/11/06 12:00:27;;;;;;;12.82;6.03;;;11.20;86.30;;;;;;5036386;28;20117;-75
2021/11/06 12:03:01;;;;;;;9.88;6.95;;;11.20;85.80;;;;;;5036233;28;20078;-76
2021/11/06 12:05:37;;;;;;;11.40;6.55;;;11.20;86.30;;;;;;5054353;28;20386;-76
2021/11/06 12:08:12;;;;;;;10.50;6.55;;;11.20;87.00;;;;;;5045515;28;20585;-76
2021/11/06 12:10:40;;;;;;;10.63;5.70;;;11.30;86.50;;;;;;5058012;28;20029;-75
2021/11/06 12:13:25;;;;;;;12.77;5.90;;;11.40;87.30;;;;;;5055999;28;20149;-74
2021/11/06 12:16:06;;;;;;;13.18;5.82;;;11.70;85.60;;;;;;5073722;28;20024;-76
2021/11/06 12:18:37;;;;;;;11.23;6.25;;;12.00;84.20;;;;;;5055844;28;20493;-75
2021/11/06 12:21:32;;;;;;;9.20;5.10;;;12.20;83.80;;;;;;5056636;28;20048;-74
2021/11/06 12:24:09;;;;;;;12.70;6.35;;;12.30;83.80;;;;;;5076879;28;20099;-73
2021/11/06 12:26:47;;;;;;;10.32;5.25;;;12.30;82.40;;;;;;5074148;28;20040;-75
2021/11/06 12:29:17;;;;;;;7.80;5.28;;;12.30;83.70;;;;;;5073618;28;20506;-74
2021/11/06 12:31:47;;;;;;;8.65;6.18;;;12.40;83.20;;;;;;5055676;28;20028;-74
2021/11/06 12:34:35;;;;;;;10.38;6.25;;;12.40;82.50;;;;;;5073176;28;20319;-75
2021/11/06 12:37:03;;;;;;;9.18;6.00;;;12.40;81.60;;;;;;5073370;28;20446;-74
2021/11/06 12:39:47;;;;;;;11.85;6.90;;;12.30;82.00;;;;;;5055396;28;20445;-74